createdAt,value
2018-09-11T00:00:26.110Z,933.51
2018-09-11T00:01:26.073Z,933.53
2018-09-11T00:02:26.013Z,933.49
2018-09-11T00:03:25.974Z,933.47
2018-09-11T00:04:26.126Z,933.45
2018-09-11T00:05:25.888Z,933.44
2018-09-11T00:06:25.828Z,933.46
2018-09-11T00:07:25.770Z,933.48
2018-09-11T00:08:25.732Z,933.52
2018-09-11T00:09:25.674Z,933.51
2018-09-11T00:10:25.632Z,933.49
2018-09-11T00:11:25.583Z,933.54
2018-09-11T00:12:25.542Z,933.61
2018-09-11T00:13:25.496Z,933.58
2018-09-11T00:14:25.438Z,933.61
2018-09-11T00:15:25.383Z,933.61
2018-09-11T00:16:25.346Z,933.56
2018-09-11T00:17:25.308Z,933.56
2018-09-11T00:18:25.249Z,933.54
2018-09-11T00:19:25.197Z,933.56
2018-09-11T00:20:25.170Z,933.59
2018-09-11T00:21:25.104Z,933.60
2018-09-11T00:22:25.063Z,933.63
2018-09-11T00:23:25.016Z,933.63
2018-09-11T00:24:24.973Z,933.62
2018-09-11T00:25:24.916Z,933.54
2018-09-11T00:26:24.873Z,933.54
2018-09-11T00:27:24.828Z,933.56
2018-09-11T00:28:24.786Z,933.53
2018-09-11T00:29:24.731Z,933.59
2018-09-11T00:30:24.712Z,933.55
2018-09-11T00:31:24.633Z,933.55
2018-09-11T00:32:24.591Z,933.57
2018-09-11T00:33:24.543Z,933.58
2018-09-11T00:34:24.510Z,933.58
2018-09-11T00:35:24.441Z,933.59
2018-09-11T00:36:24.396Z,933.58
2018-09-11T00:37:24.345Z,933.60
2018-09-11T00:38:24.307Z,933.59
2018-09-11T00:39:24.265Z,933.58
2018-09-11T00:40:24.225Z,933.59
2018-09-11T00:41:24.170Z,933.61
2018-09-11T00:42:24.124Z,933.63
2018-09-11T00:43:24.075Z,933.67
2018-09-11T00:44:24.027Z,933.65
2018-09-11T00:45:23.975Z,933.66
2018-09-11T00:46:23.930Z,933.66
2018-09-11T00:47:23.886Z,933.64
2018-09-11T00:48:23.833Z,933.65
2018-09-11T00:49:23.796Z,933.68
2018-09-11T00:50:23.726Z,933.59
2018-09-11T00:51:23.686Z,933.62
2018-09-11T00:52:23.637Z,933.62
2018-09-11T00:53:23.600Z,933.65
2018-09-11T00:54:23.543Z,933.66
2018-09-11T00:55:23.502Z,933.66
2018-09-11T00:56:23.451Z,933.66
2018-09-11T00:57:23.386Z,933.67
2018-09-11T00:58:23.359Z,933.67
2018-09-11T00:59:23.313Z,933.71
2018-09-11T01:00:23.263Z,933.68
2018-09-11T01:01:23.214Z,933.68
2018-09-11T01:02:23.163Z,933.66
2018-09-11T01:03:23.125Z,933.70
2018-09-11T01:04:23.071Z,933.69
2018-09-11T01:05:23.027Z,933.73
2018-09-11T01:06:22.973Z,933.68
2018-09-11T01:07:22.945Z,933.69
2018-09-11T01:08:22.873Z,933.70
2018-09-11T01:09:22.838Z,933.69
2018-09-11T01:10:22.786Z,933.66
2018-09-11T01:11:22.749Z,933.68
2018-09-11T01:12:22.680Z,933.66
2018-09-11T01:13:22.637Z,933.65
2018-09-11T01:14:22.609Z,933.64
2018-09-11T01:15:22.552Z,933.66
2018-09-11T01:16:22.491Z,933.62
2018-09-11T01:17:22.451Z,933.62
2018-09-11T01:18:22.392Z,933.66
2018-09-11T01:19:22.552Z,933.65
2018-09-11T01:20:22.306Z,933.66
2018-09-11T01:21:22.264Z,933.69
2018-09-11T01:22:22.223Z,933.70
2018-09-11T01:23:22.172Z,933.67
2018-09-11T01:24:22.137Z,933.65
2018-09-11T01:25:22.071Z,933.75
2018-09-11T01:26:22.021Z,933.62
2018-09-11T01:27:21.985Z,933.67
2018-09-11T01:28:21.942Z,933.61
2018-09-11T01:29:21.868Z,933.59
2018-09-11T01:30:21.843Z,933.67
2018-09-11T01:31:21.787Z,933.67
2018-09-11T01:32:21.739Z,933.71
2018-09-11T01:33:21.685Z,933.63
2018-09-11T01:34:21.649Z,933.69
2018-09-11T01:35:21.602Z,933.62
2018-09-11T01:36:21.547Z,933.60
2018-09-11T01:37:21.490Z,933.59
2018-09-11T01:38:21.447Z,933.59
2018-09-11T01:39:21.406Z,933.63
2018-09-11T01:40:21.351Z,933.60
2018-09-11T01:41:21.294Z,933.59
2018-09-11T01:42:21.267Z,933.63
2018-09-11T01:43:21.207Z,933.60
2018-09-11T01:44:21.165Z,933.61
2018-09-11T01:45:21.132Z,933.56
2018-09-11T01:46:21.074Z,933.61
2018-09-11T01:47:21.029Z,933.58
2018-09-11T01:48:20.964Z,933.56
2018-09-11T01:49:20.928Z,933.58
2018-09-11T01:50:20.891Z,933.56
2018-09-11T01:51:20.832Z,933.57
2018-09-11T01:52:20.785Z,933.63
2018-09-11T01:53:20.720Z,933.60
2018-09-11T01:54:20.699Z,933.57
2018-09-11T01:55:20.635Z,933.60
2018-09-11T01:56:20.605Z,933.56
2018-09-11T01:57:20.549Z,933.56
2018-09-11T01:58:20.486Z,933.61
2018-09-11T01:59:20.450Z,933.59
2018-09-11T02:00:20.402Z,933.63
2018-09-11T02:01:20.361Z,933.60
2018-09-11T02:02:20.316Z,933.60
2018-09-11T02:03:20.263Z,933.62
2018-09-11T02:04:20.210Z,933.63
2018-09-11T02:05:20.170Z,933.63
2018-09-11T02:06:20.097Z,933.66
2018-09-11T02:07:20.060Z,933.56
2018-09-11T02:08:20.016Z,933.54
2018-09-11T02:09:19.958Z,933.61
2018-09-11T02:10:19.910Z,933.61
2018-09-11T02:11:19.881Z,933.58
2018-09-11T02:12:19.821Z,933.59
2018-09-11T02:13:19.779Z,933.52
2018-09-11T02:14:19.736Z,933.52
2018-09-11T02:15:19.693Z,933.51
2018-09-11T02:16:19.627Z,933.56
2018-09-11T02:17:19.579Z,933.58
2018-09-11T02:18:19.546Z,933.52
2018-09-11T02:19:19.476Z,933.54
2018-09-11T02:20:19.448Z,933.53
2018-09-11T02:21:19.411Z,933.50
2018-09-11T02:22:19.357Z,933.58
2018-09-11T02:23:19.293Z,933.60
2018-09-11T02:24:19.255Z,933.60
2018-09-11T02:25:19.204Z,933.58
2018-09-11T02:26:19.159Z,933.52
2018-09-11T02:27:19.092Z,933.60
2018-09-11T02:28:19.065Z,933.53
2018-09-11T02:29:19.022Z,933.56
2018-09-11T02:30:18.959Z,933.61
2018-09-11T02:31:18.916Z,933.56
2018-09-11T02:32:18.880Z,933.60
2018-09-11T02:33:18.821Z,933.57
2018-09-11T02:34:18.781Z,933.62
2018-09-11T02:35:18.741Z,933.55
2018-09-11T02:36:18.674Z,933.49
2018-09-11T02:37:18.621Z,933.50
2018-09-11T02:38:18.586Z,933.47
2018-09-11T02:39:18.541Z,933.44
2018-09-11T02:40:18.471Z,933.46
2018-09-11T02:41:18.425Z,933.47
2018-09-11T02:42:18.388Z,933.45
2018-09-11T02:43:18.333Z,933.43
2018-09-11T02:44:18.312Z,933.41
2018-09-11T02:45:18.236Z,933.39
2018-09-11T02:46:18.205Z,933.36
2018-09-11T02:47:18.137Z,933.32
2018-09-11T02:48:18.102Z,933.33
2018-09-11T02:49:18.042Z,933.38
2018-09-11T02:50:18.003Z,933.37
2018-09-11T02:51:17.978Z,933.39
2018-09-11T02:52:17.916Z,933.45
2018-09-11T02:53:17.848Z,933.51
2018-09-11T02:54:17.802Z,933.41
2018-09-11T02:55:17.755Z,933.41
2018-09-11T02:56:17.706Z,933.36
2018-09-11T02:57:17.664Z,933.29
2018-09-11T02:58:17.607Z,933.27
2018-09-11T02:59:17.568Z,933.24
2018-09-11T03:00:17.545Z,933.19
2018-09-11T03:01:17.482Z,933.25
2018-09-11T03:02:17.417Z,933.23
2018-09-11T03:03:17.389Z,933.28
2018-09-11T03:04:17.330Z,933.25
2018-09-11T03:05:17.291Z,933.24
2018-09-11T03:06:17.223Z,933.30
2018-09-11T03:07:17.187Z,933.24
2018-09-11T03:08:17.145Z,933.22
2018-09-11T03:09:17.088Z,933.15
2018-09-11T03:10:17.047Z,933.21
2018-09-11T03:11:17.000Z,933.14
2018-09-11T03:12:16.953Z,933.24
2018-09-11T03:13:16.893Z,933.25
2018-09-11T03:14:16.860Z,933.21
2018-09-11T03:15:16.809Z,933.18
2018-09-11T03:16:16.765Z,933.20
2018-09-11T03:17:16.695Z,933.18
2018-09-11T03:18:16.644Z,933.21
2018-09-11T03:19:16.604Z,933.14
2018-09-11T03:20:16.564Z,933.18
2018-09-11T03:21:16.514Z,933.18
2018-09-11T03:22:16.454Z,933.17
2018-09-11T03:23:16.428Z,933.15
2018-09-11T03:24:16.386Z,933.14
2018-09-11T03:25:16.331Z,933.13
2018-09-11T03:26:16.263Z,933.11
2018-09-11T03:27:16.245Z,933.10
2018-09-11T03:28:16.177Z,933.08
2018-09-11T03:29:16.128Z,933.02
2018-09-11T03:30:16.080Z,932.97
2018-09-11T03:31:16.043Z,933.00
2018-09-11T03:32:15.997Z,933.00
2018-09-11T03:33:15.948Z,932.98
2018-09-11T03:34:15.898Z,932.90
2018-09-11T03:35:15.847Z,932.94
2018-09-11T03:36:15.812Z,932.97
2018-09-11T03:37:15.741Z,933.04
2018-09-11T03:38:15.712Z,932.96
2018-09-11T03:39:15.648Z,932.92
2018-09-11T03:40:15.604Z,932.89
2018-09-11T03:41:15.573Z,932.92
2018-09-11T03:42:15.495Z,932.94
2018-09-11T03:43:15.449Z,932.86
2018-09-11T03:44:15.461Z,932.91
2018-09-11T03:45:15.359Z,932.87
2018-09-11T03:46:15.307Z,932.79
2018-09-11T03:47:15.274Z,932.80
2018-09-11T03:48:15.219Z,932.78
2018-09-11T03:49:15.156Z,932.84
2018-09-11T03:50:15.105Z,932.81
2018-09-11T03:51:15.065Z,932.79
2018-09-11T03:52:15.032Z,932.79
2018-09-11T03:53:14.967Z,932.73
2018-09-11T03:54:14.935Z,932.70
2018-09-11T03:55:14.888Z,932.72
2018-09-11T03:56:14.841Z,932.69
2018-09-11T03:57:14.781Z,932.65
2018-09-11T03:58:14.743Z,932.63
2018-09-11T03:59:14.719Z,932.62
2018-09-11T04:00:14.637Z,932.59
2018-09-11T04:01:14.584Z,932.58
2018-09-11T04:02:14.546Z,932.58
2018-09-11T04:03:14.489Z,932.50
2018-09-11T04:04:14.448Z,932.57
2018-09-11T04:05:14.421Z,932.54
2018-09-11T04:06:14.335Z,932.52
2018-09-11T04:07:14.312Z,932.55
2018-09-11T04:08:14.266Z,932.47
2018-09-11T04:09:14.200Z,932.47
2018-09-11T04:10:14.160Z,932.39
2018-09-11T04:11:14.102Z,932.43
2018-09-11T04:12:14.067Z,932.38
2018-09-11T04:13:14.021Z,932.39
2018-09-11T04:14:13.956Z,932.42
2018-09-11T04:15:13.916Z,932.39
2018-09-11T04:16:13.873Z,932.36
2018-09-11T04:17:13.829Z,932.33
2018-09-11T04:18:13.794Z,932.36
2018-09-11T04:19:13.705Z,932.33
2018-09-11T04:20:13.670Z,932.31
2018-09-11T04:21:13.619Z,932.33
2018-09-11T04:22:13.574Z,932.33
2018-09-11T04:23:13.535Z,932.30
2018-09-11T04:24:13.480Z,932.30
2018-09-11T04:25:13.450Z,932.33
2018-09-11T04:26:13.387Z,932.27
2018-09-11T04:27:13.337Z,932.29
2018-09-11T04:28:13.274Z,932.31
2018-09-11T04:29:13.250Z,932.31
2018-09-11T04:30:13.196Z,932.28
2018-09-11T04:31:13.142Z,932.24
2018-09-11T04:32:13.101Z,932.25
2018-09-11T04:33:13.044Z,932.26
2018-09-11T04:34:12.988Z,932.24
2018-09-11T04:35:12.943Z,932.23
2018-09-11T04:36:12.903Z,932.17
2018-09-11T04:37:12.840Z,932.16
2018-09-11T04:38:12.801Z,932.17
2018-09-11T04:39:12.775Z,932.09
2018-09-11T04:40:12.727Z,932.13
2018-09-11T04:41:12.652Z,932.12
2018-09-11T04:42:12.609Z,932.10
2018-09-11T04:43:12.667Z,932.10
2018-09-11T04:44:12.519Z,932.11
2018-09-11T04:45:12.462Z,932.06
2018-09-11T04:46:12.419Z,932.05
2018-09-11T04:47:12.386Z,931.97
2018-09-11T04:48:12.327Z,931.98
2018-09-11T04:49:12.279Z,932.02
2018-09-11T04:50:12.246Z,932.02
2018-09-11T04:51:12.177Z,932.07
2018-09-11T04:52:12.135Z,932.01
2018-09-11T04:53:12.077Z,931.99
2018-09-11T04:54:12.019Z,932.00
2018-09-11T04:55:11.976Z,931.93
2018-09-11T04:56:11.977Z,931.96
2018-09-11T04:57:11.895Z,931.94
2018-09-11T04:58:11.862Z,931.92
2018-09-11T04:59:11.791Z,931.94
2018-09-11T05:00:11.738Z,931.94
2018-09-11T05:01:11.697Z,931.89
2018-09-11T05:02:11.646Z,931.87
2018-09-11T05:03:11.607Z,931.87
2018-09-11T05:04:11.554Z,931.87
2018-09-11T05:05:11.522Z,931.85
2018-09-11T05:06:11.453Z,931.88
2018-09-11T05:07:11.417Z,931.84
2018-09-11T05:08:11.366Z,931.85
2018-09-11T05:09:11.313Z,931.84
2018-09-11T05:10:11.273Z,931.82
2018-09-11T05:11:11.200Z,931.79
2018-09-11T05:12:11.158Z,931.77
2018-09-11T05:13:11.123Z,931.76
2018-09-11T05:14:11.078Z,931.79
2018-09-11T05:15:11.033Z,931.75
2018-09-11T05:16:10.981Z,931.73
2018-09-11T05:17:10.921Z,931.75
2018-09-11T05:18:10.877Z,931.70
2018-09-11T05:19:10.879Z,931.69
2018-09-11T05:20:10.788Z,931.69
2018-09-11T05:21:10.731Z,931.66
2018-09-11T05:22:10.695Z,931.66
2018-09-11T05:23:10.624Z,931.66
2018-09-11T05:24:10.601Z,931.65
2018-09-11T05:25:10.529Z,931.65
2018-09-11T05:26:10.479Z,931.58
2018-09-11T05:27:10.436Z,931.63
2018-09-11T05:28:10.396Z,931.62
2018-09-11T05:29:10.349Z,931.68
2018-09-11T05:30:10.317Z,931.63
2018-09-11T05:31:10.249Z,931.60
2018-09-11T05:32:10.210Z,931.60
2018-09-11T05:33:10.164Z,931.61
2018-09-11T05:34:10.107Z,931.64
2018-09-11T05:35:10.041Z,931.61
2018-09-11T05:36:10.009Z,931.60
2018-09-11T05:37:09.959Z,931.59
2018-09-11T05:38:09.900Z,931.58
2018-09-11T05:39:10.031Z,931.55
2018-09-11T05:40:09.810Z,931.57
2018-09-11T05:41:09.763Z,931.56
2018-09-11T05:42:09.732Z,931.56
2018-09-11T05:43:09.663Z,931.54
2018-09-11T05:44:09.627Z,931.53
2018-09-11T05:45:09.579Z,931.50
2018-09-11T05:46:09.531Z,931.49
2018-09-11T05:47:09.520Z,931.53
2018-09-11T05:48:09.435Z,931.49
2018-09-11T05:49:09.389Z,931.49
2018-09-11T05:50:09.362Z,931.52
2018-09-11T05:51:09.288Z,931.45
2018-09-11T05:52:09.243Z,931.46
2018-09-11T05:53:09.205Z,931.41
2018-09-11T05:54:09.158Z,931.44
2018-09-11T05:55:09.100Z,931.39
2018-09-11T05:56:09.053Z,931.40
2018-09-11T05:57:08.997Z,931.37
2018-09-11T05:58:08.944Z,931.34
2018-09-11T05:59:08.913Z,931.38
2018-09-11T06:00:08.861Z,931.39
2018-09-11T06:01:08.808Z,931.37
2018-09-11T06:02:08.767Z,931.33
2018-09-11T06:03:08.717Z,931.38
2018-09-11T06:04:08.661Z,931.36
2018-09-11T06:05:08.607Z,931.34
2018-09-11T06:06:08.564Z,931.29
2018-09-11T06:07:08.508Z,931.30
2018-09-11T06:08:08.474Z,931.25
2018-09-11T06:09:08.429Z,931.31
2018-09-11T06:10:08.385Z,931.23
2018-09-11T06:11:08.329Z,931.21
2018-09-11T06:12:08.277Z,931.25
2018-09-11T06:13:08.228Z,931.24
2018-09-11T06:14:08.179Z,931.22
2018-09-11T06:15:08.123Z,931.22
2018-09-11T06:16:08.096Z,931.19
2018-09-11T06:17:08.034Z,931.17
2018-09-11T06:18:07.984Z,931.17
2018-09-11T06:19:07.930Z,931.21
2018-09-11T06:20:07.880Z,931.17
2018-09-11T06:21:07.851Z,931.15
2018-09-11T06:22:07.804Z,931.16
2018-09-11T06:23:07.756Z,931.17
2018-09-11T06:24:07.706Z,931.13
2018-09-11T06:25:07.649Z,931.18
2018-09-11T06:26:07.601Z,931.16
2018-09-11T06:27:07.561Z,931.19
2018-09-11T06:28:07.513Z,931.15
2018-09-11T06:29:07.479Z,931.14
2018-09-11T06:30:07.421Z,931.09
2018-09-11T06:31:07.373Z,931.06
2018-09-11T06:32:07.320Z,931.10
2018-09-11T06:33:07.261Z,931.04
2018-09-11T06:34:07.220Z,930.96
2018-09-11T06:35:07.170Z,931.01
2018-09-11T06:36:07.138Z,930.90
2018-09-11T06:37:07.133Z,930.92
2018-09-11T06:38:07.023Z,930.89
2018-09-11T06:39:06.973Z,930.88
2018-09-11T06:40:06.923Z,930.95
2018-09-11T06:41:06.946Z,930.94
2018-09-11T06:42:06.830Z,930.93
2018-09-11T06:43:06.780Z,930.92
2018-09-11T06:44:06.745Z,930.93
2018-09-11T06:45:06.685Z,930.95
2018-09-11T06:46:06.648Z,930.91
2018-09-11T06:47:06.682Z,930.89
2018-09-11T06:48:06.542Z,930.88
2018-09-11T06:49:06.501Z,930.86
2018-09-11T06:50:06.449Z,930.83
2018-09-11T06:51:06.396Z,930.84
2018-09-11T06:52:06.368Z,930.79
2018-09-11T06:53:06.307Z,930.80
2018-09-11T06:54:06.256Z,930.78
2018-09-11T06:55:06.213Z,930.83
2018-09-11T06:56:06.150Z,930.80
2018-09-11T06:57:06.123Z,930.86
2018-09-11T06:58:06.048Z,930.83
2018-09-11T06:59:06.067Z,930.79
2018-09-11T07:00:05.968Z,930.83
2018-09-11T07:01:05.915Z,930.79
2018-09-11T07:02:05.889Z,930.80
2018-09-11T07:03:05.813Z,930.79
2018-09-11T07:04:05.773Z,930.77
2018-09-11T07:05:05.721Z,930.72
2018-09-11T07:06:05.680Z,930.78
2018-09-11T07:07:05.621Z,930.76
2018-09-11T07:08:05.561Z,930.73
2018-09-11T07:09:05.523Z,930.70
2018-09-11T07:10:05.491Z,930.74
2018-09-11T07:11:05.419Z,930.74
2018-09-11T07:12:05.379Z,930.82
2018-09-11T07:13:05.337Z,930.79
2018-09-11T07:14:05.283Z,930.74
2018-09-11T07:15:05.240Z,930.70
2018-09-11T07:16:05.203Z,930.73
2018-09-11T07:17:05.137Z,930.70
2018-09-11T07:18:05.110Z,930.70
2018-09-11T07:19:05.050Z,930.69
2018-09-11T07:20:05.174Z,930.73
2018-09-11T07:21:04.975Z,930.74
2018-09-11T07:22:04.912Z,930.72
2018-09-11T07:23:04.838Z,930.78
2018-09-11T07:24:04.809Z,930.76
2018-09-11T07:25:04.773Z,930.75
2018-09-11T07:26:04.797Z,930.77
2018-09-11T07:27:04.661Z,930.78
2018-09-11T07:28:04.620Z,930.77
2018-09-11T07:29:04.559Z,930.81
2018-09-11T07:30:04.513Z,930.81
2018-09-11T07:31:04.484Z,930.78
2018-09-11T07:32:04.415Z,930.82
2018-09-11T07:33:04.374Z,930.81
2018-09-11T07:34:04.333Z,930.83
2018-09-11T07:35:04.279Z,930.81
2018-09-11T07:36:04.233Z,930.84
2018-09-11T07:37:04.179Z,930.89
2018-09-11T07:38:04.128Z,930.84
2018-09-11T07:39:04.080Z,930.85
2018-09-11T07:40:04.024Z,930.88
2018-09-11T07:41:03.988Z,930.86
2018-09-11T07:42:03.941Z,930.85
2018-09-11T07:43:03.875Z,930.84
2018-09-11T07:44:03.843Z,930.90
2018-09-11T07:45:03.795Z,930.86
2018-09-11T07:46:03.739Z,930.87
2018-09-11T07:47:03.701Z,930.86
2018-09-11T07:48:03.656Z,930.84
2018-09-11T07:49:03.598Z,930.89
2018-09-11T07:50:03.538Z,930.85
2018-09-11T07:51:03.506Z,930.84
2018-09-11T07:52:03.437Z,930.86
2018-09-11T07:53:03.484Z,930.84
2018-09-11T07:54:03.354Z,930.81
2018-09-11T07:55:03.311Z,930.85
2018-09-11T07:56:03.277Z,930.90
2018-09-11T07:57:03.241Z,930.89
2018-09-11T07:58:03.310Z,930.89
2018-09-11T07:59:03.114Z,930.89
2018-09-11T08:00:03.073Z,930.90
2018-09-11T08:01:03.026Z,930.93
2018-09-11T08:02:02.976Z,930.90
2018-09-11T08:03:02.947Z,930.95
2018-09-11T08:04:02.874Z,930.94
2018-09-11T08:05:02.855Z,930.97
2018-09-11T08:06:02.766Z,930.96
2018-09-11T08:07:02.739Z,930.95
2018-09-11T08:08:02.676Z,930.97
2018-09-11T08:09:02.660Z,930.92
2018-09-11T08:10:02.597Z,930.92
2018-09-11T08:11:02.550Z,930.93
2018-09-11T08:12:02.554Z,930.94
2018-09-11T08:13:02.442Z,930.91
2018-09-11T08:14:02.404Z,930.91
2018-09-11T08:15:02.343Z,930.88
2018-09-11T08:16:02.299Z,930.91
2018-09-11T08:17:02.257Z,930.92
2018-09-11T08:18:02.210Z,930.90
2018-09-11T08:19:02.165Z,930.96
2018-09-11T08:20:02.116Z,930.92
2018-09-11T08:21:02.043Z,930.98
2018-09-11T08:22:02.005Z,930.91
2018-09-11T08:23:01.960Z,930.93
2018-09-11T08:24:01.921Z,930.98
2018-09-11T08:25:01.873Z,930.98
2018-09-11T08:26:01.813Z,931.01
2018-09-11T08:27:01.771Z,930.98
2018-09-11T08:28:01.705Z,930.97
2018-09-11T08:29:01.680Z,930.93
2018-09-11T08:30:01.620Z,930.94
2018-09-11T08:31:01.580Z,930.95
2018-09-11T08:32:01.522Z,930.94
2018-09-11T08:33:01.482Z,930.91
2018-09-11T08:34:01.434Z,930.91
2018-09-11T08:35:01.379Z,930.89
2018-09-11T08:36:01.379Z,930.88
2018-09-11T08:37:01.294Z,930.86
2018-09-11T08:38:01.249Z,930.87
2018-09-11T08:39:01.194Z,930.86
2018-09-11T08:40:01.144Z,930.91
2018-09-11T08:41:01.133Z,930.88
2018-09-11T08:42:01.053Z,930.87
2018-09-11T08:43:00.998Z,930.87
2018-09-11T08:44:00.956Z,930.92
2018-09-11T08:45:00.911Z,930.87
2018-09-11T08:46:00.847Z,930.89
2018-09-11T08:47:00.808Z,930.88
2018-09-11T08:48:00.755Z,930.93
2018-09-11T08:49:00.696Z,930.91
2018-09-11T08:50:00.670Z,930.96
2018-09-11T08:51:00.630Z,930.99
2018-09-11T08:52:00.557Z,931.03
2018-09-11T08:53:00.518Z,931.07
2018-09-11T08:54:00.483Z,931.08
2018-09-11T08:55:00.424Z,931.10
2018-09-11T08:56:00.378Z,931.04
2018-09-11T08:57:00.331Z,931.09
2018-09-11T08:58:00.268Z,931.08
2018-09-11T08:59:00.249Z,931.06
2018-09-11T09:00:00.188Z,931.08
2018-09-11T09:01:00.133Z,931.09
2018-09-11T09:02:00.074Z,931.13
2018-09-11T09:03:00.034Z,931.15
2018-09-11T09:03:59.973Z,931.17
2018-09-11T09:04:59.950Z,931.23
2018-09-11T09:05:59.893Z,931.20
2018-09-11T09:06:59.840Z,931.21
2018-09-11T09:07:59.783Z,931.23
2018-09-11T09:08:59.758Z,931.24
2018-09-11T09:09:59.738Z,931.24
2018-09-11T09:10:59.653Z,931.24
2018-09-11T09:11:59.591Z,931.26
2018-09-11T09:12:59.568Z,931.26
2018-09-11T09:13:59.496Z,931.31
2018-09-11T09:14:59.470Z,931.28
2018-09-11T09:15:59.430Z,931.31
2018-09-11T09:16:59.368Z,931.29
2018-09-11T09:17:59.316Z,931.29
2018-09-11T09:18:59.291Z,931.31
2018-09-11T09:19:59.209Z,931.33
2018-09-11T09:20:59.253Z,931.36
2018-09-11T09:21:59.135Z,931.32
2018-09-11T09:22:59.099Z,931.43
2018-09-11T09:23:59.040Z,931.44
2018-09-11T09:24:58.991Z,931.44
2018-09-11T09:25:58.941Z,931.48
2018-09-11T09:26:58.904Z,931.47
2018-09-11T09:27:58.862Z,931.51
2018-09-11T09:28:58.787Z,931.55
2018-09-11T09:29:58.739Z,931.54
2018-09-11T09:30:58.696Z,931.57
2018-09-11T09:31:58.650Z,931.60
2018-09-11T09:32:58.609Z,931.60
2018-09-11T09:33:58.547Z,931.61
2018-09-11T09:34:58.494Z,931.66
2018-09-11T09:35:58.459Z,931.71
2018-09-11T09:36:58.549Z,931.66
2018-09-11T09:37:58.367Z,931.68
2018-09-11T09:38:58.310Z,931.69
2018-09-11T09:39:58.269Z,931.70
2018-09-11T09:40:58.255Z,931.69
2018-09-11T09:41:58.178Z,931.74
2018-09-11T09:42:58.120Z,931.77
2018-09-11T09:43:58.100Z,931.86
2018-09-11T09:44:58.034Z,931.90
2018-09-11T09:45:57.985Z,931.93
2018-09-11T09:46:57.920Z,931.97
2018-09-11T09:47:57.899Z,931.95
2018-09-11T09:48:57.831Z,931.92
2018-09-11T09:49:57.785Z,932.00
2018-09-11T09:50:57.838Z,931.95
2018-09-11T09:51:57.694Z,932.00
2018-09-11T09:52:57.641Z,932.05
2018-09-11T09:53:57.586Z,932.01
2018-09-11T09:54:57.548Z,932.00
2018-09-11T09:55:57.504Z,932.03
2018-09-11T09:56:57.434Z,932.07
2018-09-11T09:57:57.395Z,932.13
2018-09-11T09:58:57.372Z,932.11
2018-09-11T09:59:57.304Z,932.13
2018-09-11T10:00:57.264Z,932.13
2018-09-11T10:01:57.218Z,932.15
2018-09-11T10:02:57.157Z,932.13
2018-09-11T10:03:57.108Z,932.20
2018-09-11T10:04:57.122Z,932.18
2018-09-11T10:05:57.010Z,932.18
2018-09-11T10:06:56.974Z,932.16
2018-09-11T10:07:56.922Z,932.19
2018-09-11T10:08:56.864Z,932.20
2018-09-11T10:09:56.825Z,932.18
2018-09-11T10:10:56.780Z,932.23
2018-09-11T10:11:56.726Z,932.24
2018-09-11T10:12:56.683Z,932.26
2018-09-11T10:13:56.630Z,932.25
2018-09-11T10:14:56.578Z,932.27
2018-09-11T10:15:56.543Z,932.30
2018-09-11T10:16:56.484Z,932.28
2018-09-11T10:17:56.426Z,932.31
2018-09-11T10:18:56.395Z,932.30
2018-09-11T10:19:56.347Z,932.32
2018-09-11T10:20:56.278Z,932.36
2018-09-11T10:21:56.250Z,932.40
2018-09-11T10:22:56.204Z,932.36
2018-09-11T10:23:56.139Z,932.41
2018-09-11T10:24:56.089Z,932.39
2018-09-11T10:25:56.069Z,932.41
2018-09-11T10:26:56.018Z,932.42
2018-09-11T10:27:55.962Z,932.44
2018-09-11T10:28:55.912Z,932.48
2018-09-11T10:29:55.853Z,932.49
2018-09-11T10:30:55.807Z,932.48
2018-09-11T10:31:55.769Z,932.45
2018-09-11T10:32:55.712Z,932.54
2018-09-11T10:33:55.806Z,932.51
2018-09-11T10:34:55.622Z,932.56
2018-09-11T10:35:55.574Z,932.54
2018-09-11T10:36:55.538Z,932.54
2018-09-11T10:37:55.488Z,932.58
2018-09-11T10:38:55.459Z,932.61
2018-09-11T10:39:55.382Z,932.61
2018-09-11T10:40:55.346Z,932.67
2018-09-11T10:41:55.283Z,932.69
2018-09-11T10:42:55.243Z,932.68
2018-09-11T10:43:55.201Z,932.71
2018-09-11T10:44:55.139Z,932.70
2018-09-11T10:45:55.115Z,932.70
2018-09-11T10:46:55.049Z,932.73
2018-09-11T10:47:55.021Z,932.75
2018-09-11T10:48:55.039Z,932.81
2018-09-11T10:49:54.896Z,932.80
2018-09-11T10:50:54.869Z,932.84
2018-09-11T10:51:54.923Z,932.85
2018-09-11T10:52:54.768Z,932.89
2018-09-11T10:53:54.718Z,932.90
2018-09-11T10:54:54.688Z,932.89
2018-09-11T10:55:54.620Z,932.91
2018-09-11T10:56:54.591Z,932.91
2018-09-11T10:57:54.547Z,932.92
2018-09-11T10:58:54.487Z,932.97
2018-09-11T10:59:54.450Z,932.95
2018-09-11T11:00:54.406Z,932.97
2018-09-11T11:01:54.336Z,932.97
2018-09-11T11:02:54.304Z,932.97
2018-09-11T11:03:54.252Z,932.91
2018-09-11T11:04:54.202Z,932.98
2018-09-11T11:05:54.156Z,933.01
2018-09-11T11:06:54.197Z,932.99
2018-09-11T11:07:54.087Z,932.98
2018-09-11T11:08:54.001Z,933.04
2018-09-11T11:09:53.965Z,932.99
2018-09-11T11:10:53.922Z,933.00
2018-09-11T11:11:53.853Z,933.02
2018-09-11T11:12:53.819Z,933.10
2018-09-11T11:13:53.779Z,933.09
2018-09-11T11:14:53.715Z,933.03
2018-09-11T11:15:53.667Z,933.03
2018-09-11T11:16:53.682Z,933.08
2018-09-11T11:17:53.595Z,933.09
2018-09-11T11:18:53.547Z,933.11
2018-09-11T11:19:53.500Z,933.09
2018-09-11T11:20:53.446Z,933.12
2018-09-11T11:21:53.395Z,933.18
2018-09-11T11:22:53.333Z,933.14
2018-09-11T11:23:53.311Z,933.10
2018-09-11T11:24:53.265Z,933.20
2018-09-11T11:25:53.200Z,933.20
2018-09-11T11:26:53.180Z,933.20
2018-09-11T11:27:53.092Z,933.26
2018-09-11T11:28:53.064Z,933.29
2018-09-11T11:29:52.999Z,933.22
2018-09-11T11:30:52.964Z,933.30
2018-09-11T11:31:52.920Z,933.29
2018-09-11T11:32:52.884Z,933.28
2018-09-11T11:33:52.850Z,933.23
2018-09-11T11:34:52.774Z,933.23
2018-09-11T11:35:52.724Z,933.21
2018-09-11T11:36:52.914Z,933.22
2018-09-11T11:37:52.632Z,933.21
2018-09-11T11:38:52.614Z,933.17
2018-09-11T11:39:52.556Z,933.21
2018-09-11T11:40:52.492Z,933.21
2018-09-11T11:41:52.471Z,933.19
2018-09-11T11:42:52.505Z,933.21
2018-09-11T11:43:52.404Z,933.23
2018-09-11T11:44:52.322Z,933.27
2018-09-11T11:45:52.256Z,933.22
2018-09-11T11:46:52.228Z,933.22
2018-09-11T11:47:52.157Z,933.23
2018-09-11T11:48:52.127Z,933.26
2018-09-11T11:49:52.091Z,933.24
2018-09-11T11:50:52.033Z,933.22
2018-09-11T11:51:51.981Z,933.26
2018-09-11T11:52:51.940Z,933.29
2018-09-11T11:53:51.895Z,933.34
2018-09-11T11:54:51.860Z,933.31
2018-09-11T11:55:51.793Z,933.31
2018-09-11T11:56:51.745Z,933.29
2018-09-11T11:57:51.698Z,933.34
2018-09-11T11:58:51.668Z,933.34
2018-09-11T11:59:51.611Z,933.34
2018-09-11T12:00:51.575Z,933.35
2018-09-11T12:01:51.546Z,933.43
2018-09-11T12:02:51.469Z,933.40
2018-09-11T12:03:51.444Z,933.43
2018-09-11T12:04:51.375Z,933.44
2018-09-11T12:05:51.337Z,933.48
2018-09-11T12:06:51.279Z,933.46
2018-09-11T12:07:51.331Z,933.50
2018-09-11T12:08:51.182Z,933.49
2018-09-11T12:09:51.148Z,933.51
2018-09-11T12:10:51.099Z,933.49
2018-09-11T12:11:51.044Z,933.45
2018-09-11T12:12:51.002Z,933.41
2018-09-11T12:13:50.966Z,933.42
2018-09-11T12:14:50.909Z,933.40
2018-09-11T12:15:50.879Z,933.40
2018-09-11T12:16:50.885Z,933.47
2018-09-11T12:17:50.772Z,933.45
2018-09-11T12:18:50.722Z,933.46
2018-09-11T12:19:50.676Z,933.47
2018-09-11T12:20:50.623Z,933.50
2018-09-11T12:21:50.577Z,933.50
2018-09-11T12:22:50.550Z,933.48
2018-09-11T12:23:50.488Z,933.51
2018-09-11T12:24:50.449Z,933.49
2018-09-11T12:25:50.401Z,933.54
2018-09-11T12:26:50.505Z,933.52
2018-09-11T12:27:50.295Z,933.53